Terminal Aerodrome Forecast
Issued by NWS Missoula, MT

Home | Current Version | Previous Version | Text Only | Print | Product List | Glossary On
Versions: 1 2 3 4 5 6 7 8 9 10 11 12 13
000
FTUS45 KMSO 190833 AAA
TAFMSO
TAF AMD
KMSO 190833Z 1909/2006 11017KT P6SM FEW120
     FM191400 11008KT P6SM SCT120
     FM192000 34010KT P6SM FEW100=

USA.gov is the U.S. government's official web portal to all federal, state and local government web resources and services.